Portada
METAR-TAF:

METAR-TAF

Aeropuertos :

Grosseto, Italia

latitud: 42-45N, longitud: 011-04E, altitud: 5 m

Observación

El informe se hizo hace 1 hora y 23 minutos, a las 16:55 UTC
Viento 8 kt del noroeste
Temperatura 26°C
Humedad 42%
Presión 1007 hPa
Visibilidad 10 km o más
Escasas nubes a una altura de 3000 ft

METAR: LIRS 061655Z 32008KT 9999 FEW030 26/12 Q1007 RMK FEW VIS MIN 9999 WIND THR03 34008KT WIND THR21 34010KT BLU

Hora: 20:18 (18:18 UTC)

Pronóstico

El informe se hizo hace 1 hora y 18 minutos, a las 17:00 UTC
Pronóstico válido del 06 a las 18 UTC al 07 a las 03 UTC
Viento 5 kt del norte-noreste
Visibilidad 10 km o más
sin nubes por debajo de 1500 m y sin presencia de cumulonimbus.

TAF: LIRS 061700Z 0618/0703 03005KT CAVOK

Observaciones y pronósticos meteorológicos de más de 4000 aeropuertos (mensajes METAR y TAF).

Los puntos amarillos y rojos representan las estaciones disponibles.

Ponga el ratón en el punto deseado para ver el nombre de la estación.

Haga clic para ver las observaciones y los pronósticos meteorológicos.

Para cambiar el mapa : haga clic en los botones verdes con una cruz de color negro para hacer un zoom, en el botón verde con un guión para alejar o en las flechas verdes para mapas adyacentes.


METAR-TAF: